Time;durP1;ratioP1;P1;durP2;ratioP2;P2;SDS_P1;SDS_P2;PMS_P1;PMS_P2;Temp;Humidity;BMP_temperature;BMP_pressure;BME280_temperature;BME280_humidity;BME280_pressure;Samples;Min_cycle;Max_cycle;Signal;HPM_P1;HPM_P2
2023/05/30 00:01:13;;;;;;;;;;;;;;;;;;5063783;28;20240;-73
2023/05/30 00:03:40;;;;;;;;;;;;;;;;;;5074233;28;19924;-73
2023/05/30 00:06:07;;;;;;;;;;;;;;;;;;5073015;28;19924;-74
2023/05/30 00:08:34;;;;;;;;;;;;;;;;;;5086285;28;19924;-74
2023/05/30 00:11:01;;;;;;;;;;;;;;;;;;5083027;28;20015;-74
2023/05/30 00:13:29;;;;;;;;;;;;;;;;;;5080668;28;20014;-75
2023/05/30 00:15:56;;;;;;;;;;;;;;;;;;5091929;28;19924;-73
2023/05/30 00:18:24;;;;;;;;;;;;;;;;;;5089017;28;19928;-73
2023/05/30 00:20:51;;;;;;;;;;;;;;;;;;5087323;28;19924;-73
2023/05/30 00:23:18;;;;;;;;;;;;;;;;;;5072272;28;19924;-74
2023/05/30 00:25:45;;;;;;;;;;;;;;;;;;5078759;28;19974;-73
2023/05/30 00:28:12;;;;;;;;;;;;;;;;;;5075820;28;19928;-74
2023/05/30 00:30:39;;;;;;;;;;;;;;;;;;5072652;28;20015;-73
2023/05/30 00:33:06;;;;;;;;;;;;;;;;;;5077945;28;19929;-73
2023/05/30 00:35:33;;;;;;;;;;;;;;;;;;5078395;28;20011;-73
2023/05/30 00:38:00;;;;;;;;;;;;;;;;;;5072606;28;19924;-74
2023/05/30 00:40:27;;;;;;;;;;;;;;;;;;5088858;28;19955;-74
2023/05/30 00:42:54;;;;;;;;;;;;;;;;;;5070889;28;19964;-76
2023/05/30 00:45:21;;;;;;;;;;;;;;;;;;5081282;28;19924;-75
2023/05/30 00:47:50;;;;;;;;;;;;;;;;;;5091018;28;19978;-77
2023/05/30 00:50:18;;;;;;;;;;;;;;;;;;5091441;28;20393;-77
2023/05/30 00:52:45;;;;;;;;;;;;;;;;;;5090183;28;19924;-76
2023/05/30 00:55:12;;;;;;;;;;;;;;;;;;5089225;28;19936;-77
2023/05/30 00:57:39;;;;;;;;;;;;;;;;;;5065514;28;19932;-77
2023/05/30 01:00:06;;;;;;;;;;;;;;;;;;5077730;28;20409;-77
2023/05/30 01:02:33;;;;;;;;;;;;;;;;;;5080543;28;19975;-77
2023/05/30 01:05:00;;;;;;;;;;;;;;;;;;5076206;28;19964;-77
2023/05/30 01:07:29;;;;;;;;;;;;;;;;;;5076920;28;19928;-76
2023/05/30 01:09:56;;;;;;;;;;;;;;;;;;5073480;28;19924;-76
2023/05/30 01:12:23;;;;;;;;;;;;;;;;;;5075857;28;19931;-76
2023/05/30 01:14:50;;;;;;;;;;;;;;;;;;5077243;28;20007;-77
2023/05/30 01:17:17;;;;;;;;;;;;;;;;;;5077410;28;20421;-74
2023/05/30 01:19:46;;;;;;;;;;;;;;;;;;5077159;28;19924;-74
2023/05/30 01:22:16;;;;;;;;;;;;;;;;;;5077208;28;20308;-74
2023/05/30 01:24:43;;;;;;;;;;;;;;;;;;5077727;28;19928;-74
2023/05/30 01:27:11;;;;;;;;;;;;;;;;;;5077765;28;19979;-74
2023/05/30 01:29:38;;;;;;;;;;;;;;;;;;5077083;28;19929;-74
2023/05/30 01:32:05;;;;;;;;;;;;;;;;;;5075552;28;19924;-74
2023/05/30 01:34:32;;;;;;;;;;;;;;;;;;5074660;28;20031;-75
2023/05/30 01:36:59;;;;;;;;;;;;;;;;;;5091988;28;20007;-75
2023/05/30 01:39:26;;;;;;;;;;;;;;;;;;5095450;28;19928;-75
2023/05/30 01:41:54;;;;;;;;;;;;;;;;;;5081118;28;20015;-75
2023/05/30 01:44:21;;;;;;;;;;;;;;;;;;5081352;28;20016;-75
2023/05/30 01:46:48;;;;;;;;;;;;;;;;;;5082249;28;19974;-74
2023/05/30 01:49:15;;;;;;;;;;;;;;;;;;5077252;28;20019;-74
2023/05/30 01:51:42;;;;;;;;;;;;;;;;;;5087872;28;19955;-74
2023/05/30 01:54:09;;;;;;;;;;;;;;;;;;5096061;28;19924;-72
2023/05/30 01:56:36;;;;;;;;;;;;;;;;;;5077157;28;20007;-74
2023/05/30 01:59:03;;;;;;;;;;;;;;;;;;5087241;28;20418;-75
2023/05/30 02:01:30;;;;;;;;;;;;;;;;;;5073001;28;19947;-76
2023/05/30 02:03:57;;;;;;;;;;;;;;;;;;5073521;28;20011;-76
2023/05/30 02:06:24;;;;;;;;;;;;;;;;;;5081409;28;19924;-76
2023/05/30 02:08:51;;;;;;;;;;;;;;;;;;5095987;28;20448;-75
2023/05/30 02:11:18;;;;;;;;;;;;;;;;;;5082735;28;19924;-75
2023/05/30 02:13:45;;;;;;;;;;;;;;;;;;5075400;28;19970;-75
2023/05/30 02:16:12;;;;;;;;;;;;;;;;;;5073590;28;19925;-76
2023/05/30 02:18:40;;;;;;;;;;;;;;;;;;5078141;28;20514;-76
2023/05/30 02:21:07;;;;;;;;;;;;;;;;;;5076221;28;19987;-75
2023/05/30 02:23:34;;;;;;;;;;;;;;;;;;5077003;28;20425;-75
2023/05/30 02:26:01;;;;;;;;;;;;;;;;;;5073698;28;19971;-74
2023/05/30 02:28:29;;;;;;;;;;;;;;;;;;5073495;28;19968;-74
2023/05/30 02:30:56;;;;;;;;;;;;;;;;;;5075903;28;20299;-74
2023/05/30 02:33:23;;;;;;;;;;;;;;;;;;5084405;28;20287;-74
2023/05/30 02:35:50;;;;;;;;;;;;;;;;;;5080497;28;19990;-74
2023/05/30 02:38:17;;;;;;;;;;;;;;;;;;5090452;28;19931;-75
2023/05/30 02:40:44;;;;;;;;;;;;;;;;;;5091985;28;20363;-76
2023/05/30 02:43:11;;;;;;;;;;;;;;;;;;5069964;28;19972;-75
2023/05/30 02:45:38;;;;;;;;;;;;;;;;;;5073761;28;19962;-76
2023/05/30 02:48:05;;;;;;;;;;;;;;;;;;5072830;28;19970;-76
2023/05/30 02:50:32;;;;;;;;;;;;;;;;;;5076125;28;19928;-76
2023/05/30 02:52:59;;;;;;;;;;;;;;;;;;5088816;28;20023;-75
2023/05/30 02:55:26;;;;;;;;;;;;;;;;;;5076282;28;20477;-77
2023/05/30 02:57:53;;;;;;;;;;;;;;;;;;5075532;28;20008;-76
2023/05/30 03:00:20;;;;;;;;;;;;;;;;;;5067781;28;19959;-75
2023/05/30 03:02:47;;;;;;;;;;;;;;;;;;5068446;28;19924;-75
2023/05/30 03:05:14;;;;;;;;;;;;;;;;;;5093202;28;19930;-75
2023/05/30 03:07:41;;;;;;;;;;;;;;;;;;5077531;28;20011;-75
2023/05/30 03:10:08;;;;;;;;;;;;;;;;;;5075698;28;20007;-75
2023/05/30 03:12:35;;;;;;;;;;;;;;;;;;5071721;28;19947;-75
2023/05/30 03:15:04;;;;;;;;;;;;;;;;;;5086046;28;19924;-76
2023/05/30 03:17:31;;;;;;;;;;;;;;;;;;5073994;28;20011;-75
2023/05/30 03:19:58;;;;;;;;;;;;;;;;;;5083761;28;19924;-75
2023/05/30 03:22:25;;;;;;;;;;;;;;;;;;5075775;28;19925;-75
2023/05/30 03:24:52;;;;;;;;;;;;;;;;;;5073383;28;19925;-75
2023/05/30 03:27:19;;;;;;;;;;;;;;;;;;5075303;28;19931;-75
2023/05/30 03:29:47;;;;;;;;;;;;;;;;;;5083718;28;19924;-75
2023/05/30 03:32:13;;;;;;;;;;;;;;;;;;5072029;28;19935;-75
2023/05/30 03:34:41;;;;;;;;;;;;;;;;;;5074616;28;19947;-76
2023/05/30 03:37:08;;;;;;;;;;;;;;;;;;5073589;28;20007;-74
2023/05/30 03:39:35;;;;;;;;;;;;;;;;;;5073603;28;20290;-76
2023/05/30 03:42:02;;;;;;;;;;;;;;;;;;5074444;28;20417;-76
2023/05/30 03:44:29;;;;;;;;;;;;;;;;;;5078680;28;19924;-76
2023/05/30 03:46:56;;;;;;;;;;;;;;;;;;5080701;28;19939;-74
2023/05/30 03:49:23;;;;;;;;;;;;;;;;;;5074497;28;20407;-74
2023/05/30 03:51:50;;;;;;;;;;;;;;;;;;5073069;28;20447;-74
2023/05/30 03:54:16;;;;;;;;;;;;;;;;;;5072903;28;20447;-74
2023/05/30 03:56:43;;;;;;;;;;;;;;;;;;5071583;28;20478;-74
2023/05/30 03:59:10;;;;;;;;;;;;;;;;;;5072690;28;20351;-74
2023/05/30 04:01:37;;;;;;;;;;;;;;;;;;5072974;28;20300;-75
2023/05/30 04:04:04;;;;;;;;;;;;;;;;;;5072887;28;20359;-76
2023/05/30 04:06:31;;;;;;;;;;;;;;;;;;5073030;28;20298;-76
2023/05/30 04:09:01;;;;;;;;;;;;;;;;;;5070997;28;20011;-76
2023/05/30 04:11:28;;;;;;;;;;;;;;;;;;5070763;28;19925;-75
2023/05/30 04:13:55;;;;;;;;;;;;;;;;;;5071507;28;20455;-75
2023/05/30 04:16:22;;;;;;;;;;;;;;;;;;5082306;28;20010;-75
2023/05/30 04:18:49;;;;;;;;;;;;;;;;;;5084223;28;20015;-74
2023/05/30 04:21:16;;;;;;;;;;;;;;;;;;5071624;28;19932;-74
2023/05/30 04:23:43;;;;;;;;;;;;;;;;;;5086724;28;20543;-74
2023/05/30 04:26:10;;;;;;;;;;;;;;;;;;5079228;28;20015;-74
2023/05/30 04:28:38;;;;;;;;;;;;;;;;;;5085910;28;20015;-78
2023/05/30 04:31:05;;;;;;;;;;;;;;;;;;5082644;28;19928;-79
2023/05/30 04:33:34;;;;;;;;;;;;;;;;;;5071799;28;19931;-79
2023/05/30 04:36:01;;;;;;;;;;;;;;;;;;5076437;28;19926;-78
2023/05/30 04:38:28;;;;;;;;;;;;;;;;;;5073058;28;19974;-79
2023/05/30 04:40:56;;;;;;;;;;;;;;;;;;5080216;28;20020;-78
2023/05/30 04:43:24;;;;;;;;;;;;;;;;;;5082421;28;20381;-79
2023/05/30 04:45:51;;;;;;;;;;;;;;;;;;5091404;28;19924;-79
2023/05/30 04:48:18;;;;;;;;;;;;;;;;;;5072433;28;19925;-80
2023/05/30 04:50:47;;;;;;;;;;;;;;;;;;5075123;28;20201;-77
2023/05/30 04:53:15;;;;;;;;;;;;;;;;;;5090702;28;19931;-78
2023/05/30 04:55:43;;;;;;;;;;;;;;;;;;5089395;28;19928;-77
2023/05/30 04:58:10;;;;;;;;;;;;;;;;;;5070364;28;19929;-78
2023/05/30 05:00:37;;;;;;;;;;;;;;;;;;5073960;28;20019;-72
2023/05/30 05:03:04;;;;;;;;;;;;;;;;;;5058062;28;20383;-78
2023/05/30 05:05:31;;;;;;;;;;;;;;;;;;5068655;28;19993;-78
2023/05/30 05:07:58;;;;;;;;;;;;;;;;;;5076571;28;20006;-79
2023/05/30 05:10:25;;;;;;;;;;;;;;;;;;5063924;28;19963;-77
2023/05/30 05:12:52;;;;;;;;;;;;;;;;;;5071808;28;19970;-78
2023/05/30 05:15:19;;;;;;;;;;;;;;;;;;5072732;28;20092;-79
2023/05/30 05:17:46;;;;;;;;;;;;;;;;;;5069022;28;19948;-78
2023/05/30 05:20:13;;;;;;;;;;;;;;;;;;5065188;28;19924;-79
2023/05/30 05:22:40;;;;;;;;;;;;;;;;;;5070491;28;20387;-77
2023/05/30 05:25:08;;;;;;;;;;;;;;;;;;5075385;28;19932;-79
2023/05/30 05:27:35;;;;;;;;;;;;;;;;;;5074206;28;19924;-78
2023/05/30 05:30:02;;;;;;;;;;;;;;;;;;5071233;28;19924;-78
2023/05/30 05:32:36;;;;;;;;;;;;;;;;;;5071092;28;19925;-79
2023/05/30 05:35:03;;;;;;;;;;;;;;;;;;5070064;28;19925;-78
2023/05/30 05:37:30;;;;;;;;;;;;;;;;;;5073973;28;20314;-78
2023/05/30 05:39:58;;;;;;;;;;;;;;;;;;5071168;28;19946;-77
2023/05/30 05:42:25;;;;;;;;;;;;;;;;;;5090230;28;19970;-78
2023/05/30 05:44:52;;;;;;;;;;;;;;;;;;5082809;28;19925;-78
2023/05/30 05:47:19;;;;;;;;;;;;;;;;;;5078954;28;20324;-78
2023/05/30 05:49:46;;;;;;;;;;;;;;;;;;5071459;28;20003;-77
2023/05/30 05:52:13;;;;;;;;;;;;;;;;;;5076260;28;19924;-77
2023/05/30 05:54:40;;;;;;;;;;;;;;;;;;5075619;28;20015;-77
2023/05/30 05:57:07;;;;;;;;;;;;;;;;;;5079442;28;20015;-78
2023/05/30 05:59:34;;;;;;;;;;;;;;;;;;5078621;28;20002;-77
2023/05/30 06:02:01;;;;;;;;;;;;;;;;;;5072907;28;20304;-77
2023/05/30 06:04:28;;;;;;;;;;;;;;;;;;5073031;28;19924;-76
2023/05/30 06:06:55;;;;;;;;;;;;;;;;;;5072093;28;20015;-76
2023/05/30 06:09:24;;;;;;;;;;;;;;;;;;5072120;28;20015;-78
2023/05/30 06:11:51;;;;;;;;;;;;;;;;;;5069599;28;19971;-78
2023/05/30 06:14:18;;;;;;;;;;;;;;;;;;5070162;28;20019;-79
2023/05/30 06:16:45;;;;;;;;;;;;;;;;;;5074843;28;19939;-79
2023/05/30 06:19:12;;;;;;;;;;;;;;;;;;5074746;28;20411;-82
2023/05/30 06:21:39;;;;;;;;;;;;;;;;;;5075392;28;20391;-82
2023/05/30 06:24:06;;;;;;;;;;;;;;;;;;5074650;28;20036;-82
2023/05/30 06:26:33;;;;;;;;;;;;;;;;;;5071095;28;20029;-82
2023/05/30 06:29:00;;;;;;;;;;;;;;;;;;5074553;28;20016;-82
2023/05/30 06:31:27;;;;;;;;;;;;;;;;;;5074849;28;19964;-82
2023/05/30 06:33:54;;;;;;;;;;;;;;;;;;5075243;28;19928;-83
2023/05/30 06:36:21;;;;;;;;;;;;;;;;;;5074225;28;19999;-81
2023/05/30 06:38:48;;;;;;;;;;;;;;;;;;5072104;28;19924;-80
2023/05/30 06:41:15;;;;;;;;;;;;;;;;;;5073918;28;19925;-80
2023/05/30 06:43:42;;;;;;;;;;;;;;;;;;5074645;28;19980;-78
2023/05/30 06:46:09;;;;;;;;;;;;;;;;;;5072383;28;19931;-79
2023/05/30 06:48:36;;;;;;;;;;;;;;;;;;5069883;28;20457;-80
2023/05/30 06:51:03;;;;;;;;;;;;;;;;;;5069129;28;19967;-78
2023/05/30 06:53:30;;;;;;;;;;;;;;;;;;5071078;28;19932;-79
2023/05/30 06:55:57;;;;;;;;;;;;;;;;;;5079636;28;19924;-79
2023/05/30 06:58:25;;;;;;;;;;;;;;;;;;5064976;28;20033;-78
2023/05/30 07:00:52;;;;;;;;;;;;;;;;;;5066030;28;20348;-76
2023/05/30 07:03:19;;;;;;;;;;;;;;;;;;5066170;28;20023;-79
2023/05/30 07:05:46;;;;;;;;;;;;;;;;;;5073571;28;20271;-78
2023/05/30 07:08:13;;;;;;;;;;;;;;;;;;5066159;28;19946;-79
2023/05/30 07:10:40;;;;;;;;;;;;;;;;;;5073423;28;19960;-79
2023/05/30 07:13:07;;;;;;;;;;;;;;;;;;5071188;28;19939;-78
2023/05/30 07:15:34;;;;;;;;;;;;;;;;;;5066367;28;20018;-78
2023/05/30 07:18:01;;;;;;;;;;;;;;;;;;5059197;28;19924;-80
2023/05/30 07:20:28;;;;;;;;;;;;;;;;;;5073715;28;19924;-79
2023/05/30 07:22:55;;;;;;;;;;;;;;;;;;5066330;28;20015;-83
2023/05/30 07:25:22;;;;;;;;;;;;;;;;;;5074710;28;20020;-84
2023/05/30 07:27:49;;;;;;;;;;;;;;;;;;5071828;28;20031;-80
2023/05/30 07:30:16;;;;;;;;;;;;;;;;;;5061430;28;20375;-80
2023/05/30 07:32:43;;;;;;;;;;;;;;;;;;5070289;28;20015;-80
2023/05/30 07:35:10;;;;;;;;;;;;;;;;;;5060066;28;20217;-79
2023/05/30 07:37:37;;;;;;;;;;;;;;;;;;5068188;28;19960;-81
2023/05/30 07:40:05;;;;;;;;;;;;;;;;;;5063587;28;19932;-80
2023/05/30 07:42:32;;;;;;;;;;;;;;;;;;5067690;28;20383;-79
2023/05/30 07:44:59;;;;;;;;;;;;;;;;;;5068167;28;19988;-79
2023/05/30 07:47:26;;;;;;;;;;;;;;;;;;5058899;28;20357;-77
2023/05/30 07:49:53;;;;;;;;;;;;;;;;;;5069252;28;20027;-77
2023/05/30 07:52:20;;;;;;;;;;;;;;;;;;5079597;28;19967;-76
2023/05/30 07:54:48;;;;;;;;;;;;;;;;;;5066336;28;19982;-76
2023/05/30 07:57:15;;;;;;;;;;;;;;;;;;5066007;28;20023;-76
2023/05/30 07:59:42;;;;;;;;;;;;;;;;;;5061495;28;19936;-75
2023/05/30 08:02:09;;;;;;;;;;;;;;;;;;5066054;28;19967;-76
2023/05/30 08:04:36;;;;;;;;;;;;;;;;;;5067297;28;19990;-76
2023/05/30 08:07:03;;;;;;;;;;;;;;;;;;5064265;28;20466;-77
2023/05/30 08:09:30;;;;;;;;;;;;;;;;;;5070345;28;19991;-77
2023/05/30 08:11:57;;;;;;;;;;;;;;;;;;5075796;28;20002;-77
2023/05/30 08:14:24;;;;;;;;;;;;;;;;;;5064158;28;20027;-75
2023/05/30 08:16:51;;;;;;;;;;;;;;;;;;5069025;28;19959;-77
2023/05/30 08:19:18;;;;;;;;;;;;;;;;;;5065658;28;19991;-77
2023/05/30 08:21:46;;;;;;;;;;;;;;;;;;5067630;28;19929;-77
2023/05/30 08:24:15;;;;;;;;;;;;;;;;;;5070190;28;19924;-80
2023/05/30 08:26:42;;;;;;;;;;;;;;;;;;5071441;28;20028;-81
2023/05/30 08:29:09;;;;;;;;;;;;;;;;;;5071827;28;19971;-81
2023/05/30 08:31:36;;;;;;;;;;;;;;;;;;5069185;28;20043;-81
2023/05/30 08:34:04;;;;;;;;;;;;;;;;;;5068696;28;20272;-82
2023/05/30 08:36:31;;;;;;;;;;;;;;;;;;5074414;28;19931;-86
2023/05/30 08:38:58;;;;;;;;;;;;;;;;;;5073604;28;20679;-87
2023/05/30 08:41:26;;;;;;;;;;;;;;;;;;5069019;28;20007;-88
2023/05/30 08:43:53;;;;;;;;;;;;;;;;;;5066930;28;20497;-87
2023/05/30 08:46:20;;;;;;;;;;;;;;;;;;5074209;28;19925;-87
2023/05/30 08:48:47;;;;;;;;;;;;;;;;;;5083202;28;20719;-87
2023/05/30 08:51:15;;;;;;;;;;;;;;;;;;5076433;28;19929;-86
2023/05/30 08:53:42;;;;;;;;;;;;;;;;;;5075057;28;19935;-83
2023/05/30 08:56:09;;;;;;;;;;;;;;;;;;5072637;28;19948;-78
2023/05/30 08:58:36;;;;;;;;;;;;;;;;;;5082089;28;19925;-84
2023/05/30 09:01:03;;;;;;;;;;;;;;;;;;5086513;28;19924;-86
2023/05/30 09:03:31;;;;;;;;;;;;;;;;;;5081108;28;19970;-85
2023/05/30 09:05:57;;;;;;;;;;;;;;;;;;5081356;28;19929;-86
2023/05/30 09:08:25;;;;;;;;;;;;;;;;;;5072603;28;19978;-88
2023/05/30 09:10:52;;;;;;;;;;;;;;;;;;5072413;28;19963;-78
2023/05/30 09:13:19;;;;;;;;;;;;;;;;;;5072469;28;20007;-78
2023/05/30 09:15:46;;;;;;;;;;;;;;;;;;5077653;28;19964;-78
2023/05/30 09:18:13;;;;;;;;;;;;;;;;;;5086873;28;19924;-77
2023/05/30 09:20:40;;;;;;;;;;;;;;;;;;5071700;28;20022;-76
2023/05/30 09:23:07;;;;;;;;;;;;;;;;;;5075371;28;19948;-77
2023/05/30 09:25:34;;;;;;;;;;;;;;;;;;5079917;28;20011;-77
2023/05/30 09:28:01;;;;;;;;;;;;;;;;;;5075331;28;19924;-78
2023/05/30 09:30:28;;;;;;;;;;;;;;;;;;5071745;28;20015;-77
2023/05/30 09:32:55;;;;;;;;;;;;;;;;;;5073642;28;19982;-79
2023/05/30 09:35:22;;;;;;;;;;;;;;;;;;5078392;28;20442;-77
2023/05/30 09:37:50;;;;;;;;;;;;;;;;;;5066730;28;20003;-79
2023/05/30 09:40:17;;;;;;;;;;;;;;;;;;5072702;28;20583;-81
2023/05/30 09:42:44;;;;;;;;;;;;;;;;;;5085123;28;20354;-85
2023/05/30 09:45:11;;;;;;;;;;;;;;;;;;5063320;28;19925;-78
2023/05/30 09:47:38;;;;;;;;;;;;;;;;;;5066107;28;19982;-88
2023/05/30 09:50:06;;;;;;;;;;;;;;;;;;5072221;28;19924;-88
2023/05/30 09:52:33;;;;;;;;;;;;;;;;;;5077569;28;20541;-81
2023/05/30 09:55:00;;;;;;;;;;;;;;;;;;5071956;28;19924;-81
2023/05/30 09:57:27;;;;;;;;;;;;;;;;;;5077935;28;20084;-83
2023/05/30 09:59:54;;;;;;;;;;;;;;;;;;5077599;28;20376;-84
2023/05/30 10:02:21;;;;;;;;;;;;;;;;;;5089980;28;19976;-85
2023/05/30 10:04:48;;;;;;;;;;;;;;;;;;5076275;28;20019;-81
2023/05/30 10:07:15;;;;;;;;;;;;;;;;;;5076251;28;19983;-81
2023/05/30 10:09:42;;;;;;;;;;;;;;;;;;5075201;28;19970;-80
2023/05/30 10:12:09;;;;;;;;;;;;;;;;;;5076714;28;19955;-82
2023/05/30 10:14:38;;;;;;;;;;;;;;;;;;5066634;28;19978;-82
2023/05/30 10:17:05;;;;;;;;;;;;;;;;;;5067420;28;20431;-82
2023/05/30 10:19:32;;;;;;;;;;;;;;;;;;5075537;28;19924;-81
2023/05/30 10:21:59;;;;;;;;;;;;;;;;;;5081317;28;19963;-82
2023/05/30 10:24:26;;;;;;;;;;;;;;;;;;5074551;28;19948;-81
2023/05/30 10:26:53;;;;;;;;;;;;;;;;;;5084106;28;19970;-82
2023/05/30 10:29:20;;;;;;;;;;;;;;;;;;5076584;28;19925;-83
2023/05/30 10:31:47;;;;;;;;;;;;;;;;;;5074803;28;19924;-83
2023/05/30 10:34:14;;;;;;;;;;;;;;;;;;5077535;28;19994;-83
2023/05/30 10:36:43;;;;;;;;;;;;;;;;;;5078455;28;20023;-83
2023/05/30 10:39:10;;;;;;;;;;;;;;;;;;5089027;28;19931;-83
2023/05/30 10:41:37;;;;;;;;;;;;;;;;;;5077256;28;20027;-88
2023/05/30 10:44:04;;;;;;;;;;;;;;;;;;5082211;28;20008;-85
2023/05/30 10:46:31;;;;;;;;;;;;;;;;;;5088190;28;19946;-84
2023/05/30 10:48:58;;;;;;;;;;;;;;;;;;5090085;28;19971;-87
2023/05/30 10:51:25;;;;;;;;;;;;;;;;;;5078531;28;19924;-89
2023/05/30 10:53:53;;;;;;;;;;;;;;;;;;5080689;28;20044;-87
2023/05/30 10:56:20;;;;;;;;;;;;;;;;;;5078777;28;19984;-86
2023/05/30 10:58:47;;;;;;;;;;;;;;;;;;5077566;28;19966;-87
2023/05/30 11:01:14;;;;;;;;;;;;;;;;;;5081289;28;19971;-87
2023/05/30 11:03:41;;;;;;;;;;;;;;;;;;5095628;28;19971;-87
2023/05/30 11:06:08;;;;;;;;;;;;;;;;;;5082258;28;20391;-85
2023/05/30 11:08:38;;;;;;;;;;;;;;;;;;5079371;28;19955;-88
2023/05/30 11:11:05;;;;;;;;;;;;;;;;;;5077796;28;19951;-85
2023/05/30 11:13:33;;;;;;;;;;;;;;;;;;5076775;28;19959;-86
2023/05/30 11:16:01;;;;;;;;;;;;;;;;;;5083789;28;20022;-87
2023/05/30 11:18:28;;;;;;;;;;;;;;;;;;5074456;28;19931;-88
2023/05/30 11:20:55;;;;;;;;;;;;;;;;;;5064446;28;19967;-81
2023/05/30 11:23:23;;;;;;;;;;;;;;;;;;5074355;28;19971;-81
2023/05/30 11:25:50;;;;;;;;;;;;;;;;;;5058854;28;19931;-81
2023/05/30 11:28:18;;;;;;;;;;;;;;;;;;5059610;28;19924;-81
2023/05/30 11:30:45;;;;;;;;;;;;;;;;;;5080817;28;19957;-80
2023/05/30 11:33:12;;;;;;;;;;;;;;;;;;5068330;28;19924;-81
2023/05/30 11:35:39;;;;;;;;;;;;;;;;;;5064791;28;19929;-81
2023/05/30 11:38:07;;;;;;;;;;;;;;;;;;5068716;28;19928;-80
2023/05/30 11:40:34;;;;;;;;;;;;;;;;;;5071029;28;20395;-79
2023/05/30 11:43:01;;;;;;;;;;;;;;;;;;5071580;28;19932;-79
2023/05/30 11:45:28;;;;;;;;;;;;;;;;;;5071717;28;19933;-80
2023/05/30 11:47:55;;;;;;;;;;;;;;;;;;5072976;28;19976;-80
2023/05/30 11:50:22;;;;;;;;;;;;;;;;;;5069633;28;20007;-81
2023/05/30 11:52:49;;;;;;;;;;;;;;;;;;5071690;28;19931;-80
2023/05/30 11:55:16;;;;;;;;;;;;;;;;;;5069173;28;20338;-78
2023/05/30 11:57:43;;;;;;;;;;;;;;;;;;5062366;28;19964;-78
2023/05/30 12:00:11;;;;;;;;;;;;;;;;;;5068969;28;20015;-78
2023/05/30 12:02:38;;;;;;;;;;;;;;;;;;5063755;28;19924;-74
2023/05/30 12:05:05;;;;;;;;;;;;;;;;;;5062500;28;20030;-78
2023/05/30 12:07:33;;;;;;;;;;;;;;;;;;5083043;28;20447;-78
2023/05/30 12:10:00;;;;;;;;;;;;;;;;;;5079310;28;19924;-78
2023/05/30 12:12:27;;;;;;;;;;;;;;;;;;5070935;28;20015;-78
2023/05/30 12:14:54;;;;;;;;;;;;;;;;;;5071127;28;19968;-78
2023/05/30 12:17:21;;;;;;;;;;;;;;;;;;5061851;28;20644;-79
2023/05/30 12:19:48;;;;;;;;;;;;;;;;;;5072683;28;19924;-78
2023/05/30 12:22:16;;;;;;;;;;;;;;;;;;5058393;28;19924;-78
2023/05/30 12:24:43;;;;;;;;;;;;;;;;;;5063632;28;20409;-79
2023/05/30 12:27:10;;;;;;;;;;;;;;;;;;5073315;28;19924;-79
2023/05/30 12:29:37;;;;;;;;;;;;;;;;;;5064041;28;20034;-79
2023/05/30 12:32:04;;;;;;;;;;;;;;;;;;5071450;28;20037;-79
2023/05/30 12:34:31;;;;;;;;;;;;;;;;;;5066061;28;19924;-73
2023/05/30 12:36:58;;;;;;;;;;;;;;;;;;5073830;28;20029;-78
2023/05/30 12:39:25;;;;;;;;;;;;;;;;;;5073206;28;19924;-78
2023/05/30 12:41:52;;;;;;;;;;;;;;;;;;5059267;28;19982;-77
2023/05/30 12:44:20;;;;;;;;;;;;;;;;;;5063414;28;19985;-78
2023/05/30 12:46:47;;;;;;;;;;;;;;;;;;5076828;22;19932;-78
2023/05/30 12:49:14;;;;;;;;;;;;;;;;;;5071810;28;19964;-78
2023/05/30 12:51:41;;;;;;;;;;;;;;;;;;5069676;28;19975;-81
2023/05/30 12:54:10;;;;;;;;;;;;;;;;;;5067472;28;19932;-80
2023/05/30 12:56:37;;;;;;;;;;;;;;;;;;5068952;28;19924;-79
2023/05/30 12:59:04;;;;;;;;;;;;;;;;;;5071532;28;20390;-80
2023/05/30 13:01:31;;;;;;;;;;;;;;;;;;5063330;28;19971;-78
2023/05/30 13:03:58;;;;;;;;;;;;;;;;;;5078896;28;20004;-80
2023/05/30 13:06:25;;;;;;;;;;;;;;;;;;5062219;28;19924;-78
2023/05/30 13:08:52;;;;;;;;;;;;;;;;;;5070049;28;20561;-79
2023/05/30 13:11:19;;;;;;;;;;;;;;;;;;5067355;28;19926;-80
2023/05/30 13:13:46;;;;;;;;;;;;;;;;;;5072593;28;20061;-79
2023/05/30 13:16:13;;;;;;;;;;;;;;;;;;5063987;28;20015;-77
2023/05/30 13:18:40;;;;;;;;;;;;;;;;;;5071782;28;19925;-76
2023/05/30 13:21:07;;;;;;;;;;;;;;;;;;5067516;28;19933;-78
2023/05/30 13:23:34;;;;;;;;;;;;;;;;;;5078189;28;19971;-78
2023/05/30 13:26:01;;;;;;;;;;;;;;;;;;5079888;28;20057;-78
2023/05/30 13:28:28;;;;;;;;;;;;;;;;;;5074320;28;19924;-79
2023/05/30 13:30:55;;;;;;;;;;;;;;;;;;5072119;28;20019;-79
2023/05/30 13:33:24;;;;;;;;;;;;;;;;;;5069029;28;19925;-79
2023/05/30 13:35:51;;;;;;;;;;;;;;;;;;5069394;28;19946;-79
2023/05/30 13:38:18;;;;;;;;;;;;;;;;;;5067697;28;19924;-78
2023/05/30 13:40:45;;;;;;;;;;;;;;;;;;5069722;28;19964;-79
2023/05/30 13:43:13;;;;;;;;;;;;;;;;;;5084368;28;19924;-78
2023/05/30 13:45:40;;;;;;;;;;;;;;;;;;5069111;28;19933;-79
2023/05/30 13:48:07;;;;;;;;;;;;;;;;;;5050673;28;20070;-79
2023/05/30 13:50:34;;;;;;;;;;;;;;;;;;5053829;28;19924;-79
2023/05/30 13:53:01;;;;;;;;;;;;;;;;;;5040298;28;20008;-79
2023/05/30 13:55:29;;;;;;;;;;;;;;;;;;5044475;28;19964;-75
2023/05/30 13:57:56;;;;;;;;;;;;;;;;;;5048388;28;19925;-76
2023/05/30 14:00:23;;;;;;;;;;;;;;;;;;5043047;28;20007;-75
2023/05/30 14:02:50;;;;;;;;;;;;;;;;;;5052460;28;20012;-76
2023/05/30 14:05:17;;;;;;;;;;;;;;;;;;5047869;28;19931;-79
2023/05/30 14:07:45;;;;;;;;;;;;;;;;;;5045525;28;19932;-80
2023/05/30 14:10:12;;;;;;;;;;;;;;;;;;5047346;28;20351;-80
2023/05/30 14:12:39;;;;;;;;;;;;;;;;;;5052288;28;19932;-75
2023/05/30 14:15:06;;;;;;;;;;;;;;;;;;5052289;28;19975;-82
2023/05/30 14:17:33;;;;;;;;;;;;;;;;;;5051077;28;19932;-80
2023/05/30 14:20:00;;;;;;;;;;;;;;;;;;5046943;28;19971;-72
2023/05/30 14:22:27;;;;;;;;;;;;;;;;;;5055725;28;19947;-80
2023/05/30 14:24:54;;;;;;;;;;;;;;;;;;5051117;28;19932;-81
2023/05/30 14:27:21;;;;;;;;;;;;;;;;;;5053485;28;19925;-81
2023/05/30 14:29:48;;;;;;;;;;;;;;;;;;5053018;28;20063;-78
2023/05/30 14:32:19;;;;;;;;;;;;;;;;;;5041023;28;20016;-77
2023/05/30 14:34:46;;;;;;;;;;;;;;;;;;5048364;28;19925;-77
2023/05/30 14:37:15;;;;;;;;;;;;;;;;;;5049967;28;20011;-78
2023/05/30 14:39:42;;;;;;;;;;;;;;;;;;5050063;28;19982;-79
2023/05/30 14:42:10;;;;;;;;;;;;;;;;;;5045180;28;20205;-86
2023/05/30 14:44:37;;;;;;;;;;;;;;;;;;5050312;28;19924;-78
2023/05/30 14:47:04;;;;;;;;;;;;;;;;;;5050387;28;19940;-78
2023/05/30 14:49:31;;;;;;;;;;;;;;;;;;5049931;28;20020;-73
2023/05/30 14:51:58;;;;;;;;;;;;;;;;;;5051657;28;20376;-74
2023/05/30 14:54:26;;;;;;;;;;;;;;;;;;5045337;28;19978;-77
2023/05/30 14:56:53;;;;;;;;;;;;;;;;;;5054062;28;19931;-78
2023/05/30 14:59:20;;;;;;;;;;;;;;;;;;5058037;28;19939;-78
2023/05/30 15:01:47;;;;;;;;;;;;;;;;;;5052864;28;19924;-79
2023/05/30 15:04:17;;;;;;;;;;;;;;;;;;5056654;28;19970;-77
2023/05/30 15:06:44;;;;;;;;;;;;;;;;;;5057208;28;19968;-78
2023/05/30 15:09:12;;;;;;;;;;;;;;;;;;5052122;28;19986;-77
2023/05/30 15:11:39;;;;;;;;;;;;;;;;;;5053047;28;19964;-77
2023/05/30 15:14:06;;;;;;;;;;;;;;;;;;5051341;28;19928;-76
2023/05/30 15:16:33;;;;;;;;;;;;;;;;;;5059944;28;20011;-78
2023/05/30 15:19:01;;;;;;;;;;;;;;;;;;5053409;28;20697;-78
2023/05/30 15:21:28;;;;;;;;;;;;;;;;;;5041121;28;19972;-77
2023/05/30 15:23:55;;;;;;;;;;;;;;;;;;5052996;28;19978;-80
2023/05/30 15:26:23;;;;;;;;;;;;;;;;;;5054024;28;19925;-78
2023/05/30 15:28:50;;;;;;;;;;;;;;;;;;5048635;28;19956;-77
2023/05/30 15:31:19;;;;;;;;;;;;;;;;;;5036973;28;20016;-77
2023/05/30 15:33:46;;;;;;;;;;;;;;;;;;5047040;28;20023;-78
2023/05/30 15:36:13;;;;;;;;;;;;;;;;;;5046803;28;19942;-79
2023/05/30 15:38:40;;;;;;;;;;;;;;;;;;5048598;28;20449;-79
2023/05/30 15:41:07;;;;;;;;;;;;;;;;;;5052634;28;20343;-78
2023/05/30 15:43:34;;;;;;;;;;;;;;;;;;5053801;28;20003;-77
2023/05/30 15:46:01;;;;;;;;;;;;;;;;;;5052888;28;20283;-79
2023/05/30 15:48:28;;;;;;;;;;;;;;;;;;5044496;28;20497;-77
2023/05/30 15:50:55;;;;;;;;;;;;;;;;;;5051007;28;20012;-79
2023/05/30 15:53:22;;;;;;;;;;;;;;;;;;5052428;28;20379;-80
2023/05/30 15:55:49;;;;;;;;;;;;;;;;;;5056827;28;19983;-80
2023/05/30 15:58:16;;;;;;;;;;;;;;;;;;5047883;28;19925;-78
2023/05/30 16:00:44;;;;;;;;;;;;;;;;;;5043499;28;20324;-77
2023/05/30 16:03:11;;;;;;;;;;;;;;;;;;5039449;28;19929;-80
2023/05/30 16:05:38;;;;;;;;;;;;;;;;;;5054881;28;19985;-79
2023/05/30 16:08:05;;;;;;;;;;;;;;;;;;5052459;28;19929;-79
2023/05/30 16:10:32;;;;;;;;;;;;;;;;;;5051418;28;19931;-79
2023/05/30 16:12:59;;;;;;;;;;;;;;;;;;5042813;28;19954;-78
2023/05/30 16:15:30;;;;;;;;;;;;;;;;;;5045437;28;19924;-77
2023/05/30 16:17:59;;;;;;;;;;;;;;;;;;5053288;28;19925;-80
2023/05/30 16:20:27;;;;;;;;;;;;;;;;;;5042857;28;19933;-80
2023/05/30 16:22:55;;;;;;;;;;;;;;;;;;5042085;28;20035;-80
2023/05/30 16:25:23;;;;;;;;;;;;;;;;;;5051323;28;19928;-80
2023/05/30 16:27:50;;;;;;;;;;;;;;;;;;5053088;28;20419;-79
2023/05/30 16:30:19;;;;;;;;;;;;;;;;;;5061704;28;20968;-79
2023/05/30 16:32:48;;;;;;;;;;;;;;;;;;5041733;28;19929;-78
2023/05/30 16:35:23;;;;;;;;;;;;;;;;;;5049436;28;20387;-78
2023/05/30 16:37:51;;;;;;;;;;;;;;;;;;5042774;28;19940;-78
2023/05/30 16:40:21;;;;;;;;;;;;;;;;;;5038852;28;19948;-77
2023/05/30 16:42:48;;;;;;;;;;;;;;;;;;5050488;28;19998;-80
2023/05/30 16:45:16;;;;;;;;;;;;;;;;;;5048546;28;19941;-81